sensor_id;sensor_type;location;lat;lon;timestamp;P1;durP1;ratioP1;P2;durP2;ratioP2
10269;SDS011;5180;50.832;5.390;2022-08-03T00:00:38;8.07;;;7.57;;
10269;SDS011;5180;50.832;5.390;2022-08-03T00:03:04;8.50;;;8.00;;
10269;SDS011;5180;50.832;5.390;2022-08-03T00:05:30;8.20;;;7.65;;
10269;SDS011;5180;50.832;5.390;2022-08-03T00:07:57;9.27;;;8.70;;
10269;SDS011;5180;50.832;5.390;2022-08-03T00:10:23;10.30;;;9.68;;
10269;SDS011;5180;50.832;5.390;2022-08-03T00:12:50;9.95;;;9.35;;
10269;SDS011;5180;50.832;5.390;2022-08-03T00:15:16;10.98;;;10.35;;
10269;SDS011;5180;50.832;5.390;2022-08-03T00:17:42;13.05;;;11.80;;
10269;SDS011;5180;50.832;5.390;2022-08-03T00:20:08;10.57;;;9.95;;
10269;SDS011;5180;50.832;5.390;2022-08-03T00:22:34;13.60;;;12.77;;
10269;SDS011;5180;50.832;5.390;2022-08-03T00:25:00;11.05;;;9.95;;
10269;SDS011;5180;50.832;5.390;2022-08-03T00:27:25;10.82;;;9.70;;
10269;SDS011;5180;50.832;5.390;2022-08-03T00:29:51;7.38;;;6.90;;
10269;SDS011;5180;50.832;5.390;2022-08-03T00:32:17;5.03;;;4.50;;
10269;SDS011;5180;50.832;5.390;2022-08-03T00:34:42;6.90;;;6.28;;
10269;SDS011;5180;50.832;5.390;2022-08-03T00:37:08;7.22;;;6.60;;
10269;SDS011;5180;50.832;5.390;2022-08-03T00:39:34;12.23;;;11.30;;
10269;SDS011;5180;50.832;5.390;2022-08-03T00:42:05;11.65;;;10.95;;
10269;SDS011;5180;50.832;5.390;2022-08-03T00:44:31;10.05;;;9.45;;
10269;SDS011;5180;50.832;5.390;2022-08-03T00:47:07;10.13;;;9.43;;
10269;SDS011;5180;50.832;5.390;2022-08-03T00:49:34;10.80;;;10.10;;
10269;SDS011;5180;50.832;5.390;2022-08-03T00:52:03;12.63;;;11.73;;
10269;SDS011;5180;50.832;5.390;2022-08-03T00:54:29;12.95;;;11.95;;
10269;SDS011;5180;50.832;5.390;2022-08-03T00:56:54;15.20;;;14.35;;
10269;SDS011;5180;50.832;5.390;2022-08-03T00:59:20;18.33;;;17.15;;
10269;SDS011;5180;50.832;5.390;2022-08-03T01:01:46;18.00;;;16.95;;
10269;SDS011;5180;50.832;5.390;2022-08-03T01:04:12;17.25;;;16.25;;
10269;SDS011;5180;50.832;5.390;2022-08-03T01:12:25;21.48;;;20.25;;
10269;SDS011;5180;50.832;5.390;2022-08-03T01:15:00;20.83;;;19.70;;
10269;SDS011;5180;50.832;5.390;2022-08-03T01:17:34;17.95;;;16.83;;
10269;SDS011;5180;50.832;5.390;2022-08-03T01:20:11;18.70;;;17.60;;
10269;SDS011;5180;50.832;5.390;2022-08-03T01:28:32;21.10;;;19.80;;
10269;SDS011;5180;50.832;5.390;2022-08-03T01:31:03;18.80;;;17.70;;
10269;SDS011;5180;50.832;5.390;2022-08-03T01:33:35;19.33;;;18.20;;
10269;SDS011;5180;50.832;5.390;2022-08-03T01:36:04;20.52;;;19.35;;
10269;SDS011;5180;50.832;5.390;2022-08-03T01:38:55;23.60;;;22.13;;
10269;SDS011;5180;50.832;5.390;2022-08-03T01:41:29;24.42;;;23.02;;
10269;SDS011;5180;50.832;5.390;2022-08-03T01:43:58;30.10;;;28.15;;
10269;SDS011;5180;50.832;5.390;2022-08-03T01:46:26;31.55;;;29.48;;
10269;SDS011;5180;50.832;5.390;2022-08-03T01:48:54;31.52;;;29.52;;
10269;SDS011;5180;50.832;5.390;2022-08-03T01:51:21;33.10;;;30.88;;
10269;SDS011;5180;50.832;5.390;2022-08-03T01:53:47;36.60;;;34.25;;
10269;SDS011;5180;50.832;5.390;2022-08-03T01:56:15;37.47;;;35.35;;
10269;SDS011;5180;50.832;5.390;2022-08-03T01:58:43;38.88;;;36.55;;
10269;SDS011;5180;50.832;5.390;2022-08-03T02:01:10;32.75;;;30.75;;
10269;SDS011;5180;50.832;5.390;2022-08-03T02:03:38;27.60;;;26.02;;
10269;SDS011;5180;50.832;5.390;2022-08-03T02:06:06;25.02;;;23.38;;
10269;SDS011;5180;50.832;5.390;2022-08-03T02:08:38;27.95;;;25.67;;
10269;SDS011;5180;50.832;5.390;2022-08-03T02:11:05;24.27;;;22.88;;
10269;SDS011;5180;50.832;5.390;2022-08-03T02:13:32;22.15;;;20.73;;
10269;SDS011;5180;50.832;5.390;2022-08-03T02:15:59;25.63;;;24.05;;
10269;SDS011;5180;50.832;5.390;2022-08-03T02:18:28;29.95;;;28.13;;
10269;SDS011;5180;50.832;5.390;2022-08-03T02:20:55;31.63;;;29.65;;
10269;SDS011;5180;50.832;5.390;2022-08-03T02:23:22;30.45;;;28.38;;
10269;SDS011;5180;50.832;5.390;2022-08-03T02:25:50;25.00;;;23.50;;
10269;SDS011;5180;50.832;5.390;2022-08-03T02:28:20;25.40;;;23.90;;
10269;SDS011;5180;50.832;5.390;2022-08-03T02:30:52;22.25;;;21.10;;
10269;SDS011;5180;50.832;5.390;2022-08-03T02:33:26;24.08;;;22.65;;
10269;SDS011;5180;50.832;5.390;2022-08-03T02:35:56;27.10;;;25.48;;
10269;SDS011;5180;50.832;5.390;2022-08-03T02:38:25;31.48;;;29.65;;
10269;SDS011;5180;50.832;5.390;2022-08-03T02:41:00;23.45;;;21.88;;
10269;SDS011;5180;50.832;5.390;2022-08-03T02:43:28;22.60;;;21.25;;
10269;SDS011;5180;50.832;5.390;2022-08-03T02:45:55;21.15;;;20.00;;
10269;SDS011;5180;50.832;5.390;2022-08-03T02:48:22;23.50;;;21.95;;
10269;SDS011;5180;50.832;5.390;2022-08-03T02:50:52;29.02;;;26.92;;
10269;SDS011;5180;50.832;5.390;2022-08-03T02:53:20;40.00;;;37.72;;
10269;SDS011;5180;50.832;5.390;2022-08-03T02:55:48;46.88;;;44.25;;
10269;SDS011;5180;50.832;5.390;2022-08-03T02:58:16;44.00;;;41.38;;
10269;SDS011;5180;50.832;5.390;2022-08-03T03:00:46;44.03;;;41.17;;
10269;SDS011;5180;50.832;5.390;2022-08-03T03:03:12;40.60;;;38.05;;
10269;SDS011;5180;50.832;5.390;2022-08-03T03:05:39;44.88;;;42.05;;
10269;SDS011;5180;50.832;5.390;2022-08-03T03:08:06;43.58;;;40.97;;
10269;SDS011;5180;50.832;5.390;2022-08-03T03:10:33;40.25;;;37.75;;
10269;SDS011;5180;50.832;5.390;2022-08-03T03:13:00;41.42;;;38.95;;
10269;SDS011;5180;50.832;5.390;2022-08-03T03:15:27;33.58;;;31.48;;
10269;SDS011;5180;50.832;5.390;2022-08-03T03:17:55;34.97;;;32.92;;
10269;SDS011;5180;50.832;5.390;2022-08-03T03:20:22;25.15;;;23.73;;
10269;SDS011;5180;50.832;5.390;2022-08-03T03:22:49;36.45;;;34.22;;
10269;SDS011;5180;50.832;5.390;2022-08-03T03:25:16;38.35;;;35.88;;
10269;SDS011;5180;50.832;5.390;2022-08-03T03:27:42;31.40;;;29.63;;
10269;SDS011;5180;50.832;5.390;2022-08-03T03:30:08;30.00;;;28.05;;
10269;SDS011;5180;50.832;5.390;2022-08-03T03:32:34;42.90;;;40.28;;
10269;SDS011;5180;50.832;5.390;2022-08-03T03:35:01;49.17;;;46.30;;
10269;SDS011;5180;50.832;5.390;2022-08-03T03:37:28;42.05;;;39.60;;
10269;SDS011;5180;50.832;5.390;2022-08-03T03:39:54;39.03;;;36.80;;
10269;SDS011;5180;50.832;5.390;2022-08-03T03:42:20;35.30;;;33.20;;
10269;SDS011;5180;50.832;5.390;2022-08-03T03:44:46;33.22;;;31.33;;
10269;SDS011;5180;50.832;5.390;2022-08-03T03:47:11;24.52;;;22.90;;
10269;SDS011;5180;50.832;5.390;2022-08-03T03:49:38;33.30;;;31.08;;
10269;SDS011;5180;50.832;5.390;2022-08-03T03:52:04;38.17;;;36.08;;
10269;SDS011;5180;50.832;5.390;2022-08-03T03:54:39;26.30;;;24.60;;
10269;SDS011;5180;50.832;5.390;2022-08-03T03:57:06;27.90;;;26.13;;
10269;SDS011;5180;50.832;5.390;2022-08-03T03:59:32;28.33;;;26.75;;
10269;SDS011;5180;50.832;5.390;2022-08-03T04:02:01;25.50;;;23.90;;
10269;SDS011;5180;50.832;5.390;2022-08-03T04:04:27;31.27;;;29.48;;
10269;SDS011;5180;50.832;5.390;2022-08-03T04:07:11;34.65;;;32.60;;
10269;SDS011;5180;50.832;5.390;2022-08-03T04:09:55;37.45;;;35.03;;
10269;SDS011;5180;50.832;5.390;2022-08-03T04:12:54;35.45;;;33.33;;
10269;SDS011;5180;50.832;5.390;2022-08-03T04:15:23;29.48;;;27.67;;
10269;SDS011;5180;50.832;5.390;2022-08-03T04:17:51;22.55;;;21.08;;
10269;SDS011;5180;50.832;5.390;2022-08-03T04:20:19;14.40;;;13.30;;
10269;SDS011;5180;50.832;5.390;2022-08-03T04:22:47;11.32;;;10.63;;
10269;SDS011;5180;50.832;5.390;2022-08-03T04:25:15;17.85;;;16.52;;
10269;SDS011;5180;50.832;5.390;2022-08-03T04:27:43;12.63;;;11.48;;
10269;SDS011;5180;50.832;5.390;2022-08-03T04:30:11;15.32;;;14.15;;
10269;SDS011;5180;50.832;5.390;2022-08-03T04:32:39;17.48;;;16.17;;
10269;SDS011;5180;50.832;5.390;2022-08-03T04:35:07;16.27;;;14.80;;
10269;SDS011;5180;50.832;5.390;2022-08-03T04:37:38;15.73;;;14.63;;
10269;SDS011;5180;50.832;5.390;2022-08-03T04:40:12;16.33;;;14.93;;
10269;SDS011;5180;50.832;5.390;2022-08-03T04:42:39;14.63;;;13.52;;
10269;SDS011;5180;50.832;5.390;2022-08-03T04:45:06;15.10;;;14.13;;
10269;SDS011;5180;50.832;5.390;2022-08-03T04:47:35;15.35;;;14.15;;
10269;SDS011;5180;50.832;5.390;2022-08-03T04:50:02;16.60;;;15.23;;
10269;SDS011;5180;50.832;5.390;2022-08-03T04:52:30;16.95;;;15.85;;
10269;SDS011;5180;50.832;5.390;2022-08-03T04:54:56;18.83;;;17.67;;
10269;SDS011;5180;50.832;5.390;2022-08-03T04:57:21;17.25;;;16.13;;
10269;SDS011;5180;50.832;5.390;2022-08-03T04:59:47;17.38;;;16.10;;
10269;SDS011;5180;50.832;5.390;2022-08-03T05:02:16;19.35;;;17.95;;
10269;SDS011;5180;50.832;5.390;2022-08-03T05:04:42;18.65;;;17.48;;
10269;SDS011;5180;50.832;5.390;2022-08-03T05:07:10;16.65;;;15.70;;
10269;SDS011;5180;50.832;5.390;2022-08-03T05:09:40;21.33;;;19.80;;
10269;SDS011;5180;50.832;5.390;2022-08-03T05:12:06;15.95;;;14.75;;
10269;SDS011;5180;50.832;5.390;2022-08-03T05:14:32;7.10;;;5.40;;
10269;SDS011;5180;50.832;5.390;2022-08-03T05:17:01;16.90;;;15.80;;
10269;SDS011;5180;50.832;5.390;2022-08-03T05:19:26;16.63;;;15.48;;
10269;SDS011;5180;50.832;5.390;2022-08-03T05:21:52;10.15;;;9.45;;
10269;SDS011;5180;50.832;5.390;2022-08-03T05:24:18;11.40;;;10.60;;
10269;SDS011;5180;50.832;5.390;2022-08-03T05:26:44;5.03;;;4.50;;
10269;SDS011;5180;50.832;5.390;2022-08-03T05:29:09;4.97;;;3.55;;
10269;SDS011;5180;50.832;5.390;2022-08-03T05:31:35;3.70;;;2.95;;
10269;SDS011;5180;50.832;5.390;2022-08-03T05:34:00;5.82;;;2.40;;
10269;SDS011;5180;50.832;5.390;2022-08-03T05:36:26;4.20;;;2.60;;
10269;SDS011;5180;50.832;5.390;2022-08-03T05:38:51;6.53;;;2.50;;
10269;SDS011;5180;50.832;5.390;2022-08-03T05:41:17;4.28;;;2.58;;
10269;SDS011;5180;50.832;5.390;2022-08-03T05:43:43;6.05;;;2.70;;
10269;SDS011;5180;50.832;5.390;2022-08-03T05:46:09;2.85;;;2.25;;
10269;SDS011;5180;50.832;5.390;2022-08-03T05:48:35;5.80;;;2.20;;
10269;SDS011;5180;50.832;5.390;2022-08-03T05:51:00;5.80;;;2.65;;
10269;SDS011;5180;50.832;5.390;2022-08-03T05:53:26;3.53;;;2.40;;
10269;SDS011;5180;50.832;5.390;2022-08-03T05:55:53;6.00;;;2.50;;
10269;SDS011;5180;50.832;5.390;2022-08-03T05:58:20;5.00;;;2.30;;
10269;SDS011;5180;50.832;5.390;2022-08-03T06:00:45;7.93;;;2.50;;
10269;SDS011;5180;50.832;5.390;2022-08-03T06:03:11;3.17;;;2.22;;
10269;SDS011;5180;50.832;5.390;2022-08-03T06:05:36;6.07;;;2.17;;
10269;SDS011;5180;50.832;5.390;2022-08-03T06:08:02;4.07;;;2.67;;
10269;SDS011;5180;50.832;5.390;2022-08-03T06:10:28;7.47;;;2.25;;
10269;SDS011;5180;50.832;5.390;2022-08-03T06:12:54;3.65;;;2.08;;
10269;SDS011;5180;50.832;5.390;2022-08-03T06:15:20;4.53;;;2.22;;
10269;SDS011;5180;50.832;5.390;2022-08-03T06:17:49;4.57;;;2.00;;
10269;SDS011;5180;50.832;5.390;2022-08-03T06:20:16;4.10;;;2.20;;
10269;SDS011;5180;50.832;5.390;2022-08-03T06:22:44;4.57;;;2.13;;
10269;SDS011;5180;50.832;5.390;2022-08-03T06:25:11;4.15;;;2.08;;
10269;SDS011;5180;50.832;5.390;2022-08-03T06:27:36;4.18;;;2.08;;
10269;SDS011;5180;50.832;5.390;2022-08-03T06:30:07;4.65;;;2.00;;
10269;SDS011;5180;50.832;5.390;2022-08-03T06:32:35;4.10;;;1.83;;
10269;SDS011;5180;50.832;5.390;2022-08-03T06:35:01;3.85;;;1.90;;
10269;SDS011;5180;50.832;5.390;2022-08-03T06:37:27;2.90;;;1.63;;
10269;SDS011;5180;50.832;5.390;2022-08-03T06:39:53;5.45;;;2.13;;
10269;SDS011;5180;50.832;5.390;2022-08-03T06:42:18;2.95;;;1.92;;
10269;SDS011;5180;50.832;5.390;2022-08-03T06:44:44;2.67;;;1.73;;
10269;SDS011;5180;50.832;5.390;2022-08-03T06:47:10;3.25;;;1.63;;
10269;SDS011;5180;50.832;5.390;2022-08-03T06:49:35;6.47;;;1.90;;
10269;SDS011;5180;50.832;5.390;2022-08-03T06:52:01;3.08;;;1.70;;
10269;SDS011;5180;50.832;5.390;2022-08-03T06:54:27;4.60;;;2.03;;
10269;SDS011;5180;50.832;5.390;2022-08-03T06:56:53;3.60;;;1.80;;
10269;SDS011;5180;50.832;5.390;2022-08-03T06:59:18;2.67;;;1.50;;
10269;SDS011;5180;50.832;5.390;2022-08-03T07:01:44;3.05;;;1.63;;
10269;SDS011;5180;50.832;5.390;2022-08-03T07:04:09;3.17;;;1.35;;
10269;SDS011;5180;50.832;5.390;2022-08-03T07:06:36;2.25;;;1.30;;
10269;SDS011;5180;50.832;5.390;2022-08-03T07:09:03;6.38;;;1.73;;
10269;SDS011;5180;50.832;5.390;2022-08-03T07:11:28;3.35;;;1.50;;
10269;SDS011;5180;50.832;5.390;2022-08-03T07:13:54;6.53;;;1.58;;
10269;SDS011;5180;50.832;5.390;2022-08-03T07:16:20;4.05;;;1.83;;
10269;SDS011;5180;50.832;5.390;2022-08-03T07:18:46;2.75;;;1.55;;
10269;SDS011;5180;50.832;5.390;2022-08-03T07:21:12;4.43;;;1.60;;
10269;SDS011;5180;50.832;5.390;2022-08-03T07:23:38;2.63;;;1.40;;
10269;SDS011;5180;50.832;5.390;2022-08-03T07:26:03;4.53;;;1.30;;
10269;SDS011;5180;50.832;5.390;2022-08-03T07:28:29;3.05;;;1.17;;
10269;SDS011;5180;50.832;5.390;2022-08-03T07:30:55;2.83;;;1.30;;
10269;SDS011;5180;50.832;5.390;2022-08-03T07:33:20;4.10;;;1.00;;
10269;SDS011;5180;50.832;5.390;2022-08-03T07:35:46;2.90;;;1.10;;
10269;SDS011;5180;50.832;5.390;2022-08-03T07:38:12;1.42;;;1.00;;
10269;SDS011;5180;50.832;5.390;2022-08-03T07:40:38;4.35;;;1.00;;
10269;SDS011;5180;50.832;5.390;2022-08-03T07:43:03;2.30;;;0.90;;
10269;SDS011;5180;50.832;5.390;2022-08-03T07:45:29;1.05;;;0.90;;
10269;SDS011;5180;50.832;5.390;2022-08-03T07:47:55;1.83;;;0.90;;
10269;SDS011;5180;50.832;5.390;2022-08-03T07:50:21;1.30;;;0.85;;
10269;SDS011;5180;50.832;5.390;2022-08-03T07:52:47;2.20;;;0.95;;
10269;SDS011;5180;50.832;5.390;2022-08-03T07:55:17;2.35;;;0.95;;
10269;SDS011;5180;50.832;5.390;2022-08-03T07:57:45;1.95;;;0.80;;
10269;SDS011;5180;50.832;5.390;2022-08-03T08:00:17;2.20;;;0.95;;
10269;SDS011;5180;50.832;5.390;2022-08-03T08:02:43;3.00;;;0.95;;
10269;SDS011;5180;50.832;5.390;2022-08-03T08:05:09;1.33;;;0.80;;
10269;SDS011;5180;50.832;5.390;2022-08-03T08:07:35;1.50;;;0.80;;
10269;SDS011;5180;50.832;5.390;2022-08-03T08:10:02;1.73;;;0.85;;
10269;SDS011;5180;50.832;5.390;2022-08-03T08:12:32;3.63;;;1.00;;
10269;SDS011;5180;50.832;5.390;2022-08-03T08:14:58;2.80;;;1.20;;
10269;SDS011;5180;50.832;5.390;2022-08-03T08:17:23;3.10;;;0.90;;
10269;SDS011;5180;50.832;5.390;2022-08-03T08:19:49;1.35;;;1.00;;
10269;SDS011;5180;50.832;5.390;2022-08-03T08:22:15;1.30;;;1.00;;
10269;SDS011;5180;50.832;5.390;2022-08-03T08:24:40;1.88;;;1.10;;
10269;SDS011;5180;50.832;5.390;2022-08-03T08:27:08;2.50;;;1.02;;
10269;SDS011;5180;50.832;5.390;2022-08-03T08:29:36;1.45;;;0.90;;
10269;SDS011;5180;50.832;5.390;2022-08-03T08:32:02;2.65;;;1.00;;
10269;SDS011;5180;50.832;5.390;2022-08-03T08:34:28;1.63;;;0.98;;
10269;SDS011;5180;50.832;5.390;2022-08-03T08:36:53;1.92;;;0.93;;
10269;SDS011;5180;50.832;5.390;2022-08-03T08:39:19;1.55;;;1.10;;
10269;SDS011;5180;50.832;5.390;2022-08-03T08:41:45;1.80;;;1.00;;
10269;SDS011;5180;50.832;5.390;2022-08-03T08:44:10;1.30;;;0.80;;
10269;SDS011;5180;50.832;5.390;2022-08-03T08:46:36;1.05;;;0.70;;
10269;SDS011;5180;50.832;5.390;2022-08-03T08:49:02;1.90;;;0.85;;
10269;SDS011;5180;50.832;5.390;2022-08-03T08:51:32;1.00;;;0.80;;
10269;SDS011;5180;50.832;5.390;2022-08-03T08:54:02;4.90;;;0.90;;
10269;SDS011;5180;50.832;5.390;2022-08-03T08:56:32;3.22;;;1.00;;
10269;SDS011;5180;50.832;5.390;2022-08-03T08:59:00;1.13;;;0.80;;
10269;SDS011;5180;50.832;5.390;2022-08-03T09:01:26;1.73;;;0.98;;
10269;SDS011;5180;50.832;5.390;2022-08-03T09:03:52;4.07;;;0.80;;
10269;SDS011;5180;50.832;5.390;2022-08-03T09:06:19;2.97;;;0.90;;
10269;SDS011;5180;50.832;5.390;2022-08-03T09:08:45;1.52;;;0.80;;
10269;SDS011;5180;50.832;5.390;2022-08-03T09:11:11;2.28;;;0.90;;
10269;SDS011;5180;50.832;5.390;2022-08-03T09:13:37;1.33;;;0.80;;
10269;SDS011;5180;50.832;5.390;2022-08-03T09:16:13;2.30;;;0.90;;
10269;SDS011;5180;50.832;5.390;2022-08-03T09:18:41;1.35;;;0.88;;
10269;SDS011;5180;50.832;5.390;2022-08-03T09:21:11;1.95;;;0.90;;
10269;SDS011;5180;50.832;5.390;2022-08-03T09:23:47;3.55;;;1.00;;
10269;SDS011;5180;50.832;5.390;2022-08-03T09:26:25;2.38;;;0.98;;
10269;SDS011;5180;50.832;5.390;2022-08-03T09:28:53;1.90;;;0.70;;
10269;SDS011;5180;50.832;5.390;2022-08-03T09:31:34;1.77;;;0.80;;
10269;SDS011;5180;50.832;5.390;2022-08-03T09:34:08;2.13;;;0.80;;
10269;SDS011;5180;50.832;5.390;2022-08-03T09:36:39;1.88;;;1.00;;
10269;SDS011;5180;50.832;5.390;2022-08-03T09:39:09;4.45;;;0.93;;
10269;SDS011;5180;50.832;5.390;2022-08-03T09:41:37;0.75;;;0.70;;
10269;SDS011;5180;50.832;5.390;2022-08-03T09:44:07;2.38;;;1.10;;
10269;SDS011;5180;50.832;5.390;2022-08-03T09:49:14;2.13;;;0.82;;
10269;SDS011;5180;50.832;5.390;2022-08-03T09:51:40;2.85;;;0.90;;
10269;SDS011;5180;50.832;5.390;2022-08-03T09:54:06;1.88;;;0.82;;
10269;SDS011;5180;50.832;5.390;2022-08-03T09:56:44;6.45;;;0.95;;
10269;SDS011;5180;50.832;5.390;2022-08-03T09:59:11;1.08;;;0.82;;
10269;SDS011;5180;50.832;5.390;2022-08-03T10:01:38;1.00;;;0.70;;
10269;SDS011;5180;50.832;5.390;2022-08-03T10:04:10;1.10;;;0.73;;
10269;SDS011;5180;50.832;5.390;2022-08-03T10:06:38;2.38;;;0.70;;
10269;SDS011;5180;50.832;5.390;2022-08-03T10:09:05;3.30;;;0.73;;
10269;SDS011;5180;50.832;5.390;2022-08-03T10:11:32;0.85;;;0.60;;
10269;SDS011;5180;50.832;5.390;2022-08-03T10:14:02;3.80;;;1.00;;
10269;SDS011;5180;50.832;5.390;2022-08-03T10:16:33;2.60;;;0.80;;
10269;SDS011;5180;50.832;5.390;2022-08-03T10:19:01;2.97;;;0.60;;
10269;SDS011;5180;50.832;5.390;2022-08-03T10:21:36;3.00;;;0.80;;
10269;SDS011;5180;50.832;5.390;2022-08-03T10:24:05;1.02;;;0.70;;
10269;SDS011;5180;50.832;5.390;2022-08-03T10:26:34;1.23;;;0.60;;
10269;SDS011;5180;50.832;5.390;2022-08-03T10:29:03;0.90;;;0.60;;
10269;SDS011;5180;50.832;5.390;2022-08-03T10:31:33;1.42;;;0.68;;
10269;SDS011;5180;50.832;5.390;2022-08-03T10:34:03;1.40;;;0.60;;
10269;SDS011;5180;50.832;5.390;2022-08-03T10:36:31;5.10;;;1.13;;
10269;SDS011;5180;50.832;5.390;2022-08-03T10:38:59;1.75;;;0.52;;
10269;SDS011;5180;50.832;5.390;2022-08-03T10:41:30;0.98;;;0.60;;
10269;SDS011;5180;50.832;5.390;2022-08-03T10:44:03;1.05;;;0.50;;
10269;SDS011;5180;50.832;5.390;2022-08-03T10:46:32;1.13;;;0.63;;
10269;SDS011;5180;50.832;5.390;2022-08-03T10:48:59;2.75;;;0.70;;
10269;SDS011;5180;50.832;5.390;2022-08-03T10:51:26;1.05;;;0.50;;
10269;SDS011;5180;50.832;5.390;2022-08-03T10:53:56;1.55;;;0.50;;
10269;SDS011;5180;50.832;5.390;2022-08-03T10:59:16;1.85;;;0.60;;
10269;SDS011;5180;50.832;5.390;2022-08-03T11:02:02;2.30;;;0.75;;
10269;SDS011;5180;50.832;5.390;2022-08-03T11:04:32;1.25;;;0.65;;
10269;SDS011;5180;50.832;5.390;2022-08-03T11:09:45;2.08;;;0.70;;
10269;SDS011;5180;50.832;5.390;2022-08-03T11:12:25;0.52;;;0.52;;
10269;SDS011;5180;50.832;5.390;2022-08-03T11:14:56;0.80;;;0.80;;
10269;SDS011;5180;50.832;5.390;2022-08-03T11:17:23;1.00;;;0.60;;
10269;SDS011;5180;50.832;5.390;2022-08-03T11:19:50;0.63;;;0.60;;
10269;SDS011;5180;50.832;5.390;2022-08-03T11:22:16;2.08;;;0.60;;
10269;SDS011;5180;50.832;5.390;2022-08-03T11:37:35;1.05;;;0.73;;
10269;SDS011;5180;50.832;5.390;2022-08-03T11:48:35;1.52;;;0.75;;
10269;SDS011;5180;50.832;5.390;2022-08-03T11:51:07;1.02;;;0.80;;
10269;SDS011;5180;50.832;5.390;2022-08-03T11:53:57;0.95;;;0.77;;
10269;SDS011;5180;50.832;5.390;2022-08-03T11:56:25;1.58;;;0.90;;
10269;SDS011;5180;50.832;5.390;2022-08-03T11:58:52;3.33;;;0.80;;
10269;SDS011;5180;50.832;5.390;2022-08-03T12:01:20;2.40;;;0.80;;
10269;SDS011;5180;50.832;5.390;2022-08-03T12:03:47;1.27;;;0.70;;
10269;SDS011;5180;50.832;5.390;2022-08-03T12:06:14;1.05;;;0.80;;
10269;SDS011;5180;50.832;5.390;2022-08-03T12:08:40;2.72;;;1.00;;
10269;SDS011;5180;50.832;5.390;2022-08-03T12:11:07;1.85;;;0.80;;
10269;SDS011;5180;50.832;5.390;2022-08-03T12:13:35;1.27;;;0.70;;
10269;SDS011;5180;50.832;5.390;2022-08-03T12:16:03;2.17;;;0.70;;
10269;SDS011;5180;50.832;5.390;2022-08-03T12:18:29;0.70;;;0.70;;
10269;SDS011;5180;50.832;5.390;2022-08-03T12:21:04;1.27;;;0.85;;
10269;SDS011;5180;50.832;5.390;2022-08-03T12:23:34;3.03;;;0.75;;
10269;SDS011;5180;50.832;5.390;2022-08-03T12:26:08;1.05;;;0.80;;
10269;SDS011;5180;50.832;5.390;2022-08-03T12:28:34;1.98;;;0.63;;
10269;SDS011;5180;50.832;5.390;2022-08-03T12:31:06;0.93;;;0.75;;
10269;SDS011;5180;50.832;5.390;2022-08-03T12:36:22;1.70;;;0.80;;
10269;SDS011;5180;50.832;5.390;2022-08-03T12:38:58;2.08;;;0.80;;
10269;SDS011;5180;50.832;5.390;2022-08-03T12:41:28;0.90;;;0.77;;
10269;SDS011;5180;50.832;5.390;2022-08-03T12:43:55;0.80;;;0.70;;
10269;SDS011;5180;50.832;5.390;2022-08-03T12:46:20;1.20;;;0.70;;
10269;SDS011;5180;50.832;5.390;2022-08-03T12:49:03;0.60;;;0.60;;
10269;SDS011;5180;50.832;5.390;2022-08-03T12:54:22;0.93;;;0.70;;
10269;SDS011;5180;50.832;5.390;2022-08-03T12:57:00;0.70;;;0.70;;
10269;SDS011;5180;50.832;5.390;2022-08-03T12:59:31;4.03;;;0.90;;
10269;SDS011;5180;50.832;5.390;2022-08-03T13:02:04;0.95;;;0.60;;
10269;SDS011;5180;50.832;5.390;2022-08-03T13:04:30;1.70;;;0.70;;
10269;SDS011;5180;50.832;5.390;2022-08-03T13:09:27;2.42;;;0.70;;
10269;SDS011;5180;50.832;5.390;2022-08-03T13:12:09;0.93;;;0.80;;
10269;SDS011;5180;50.832;5.390;2022-08-03T13:14:35;0.80;;;0.80;;
10269;SDS011;5180;50.832;5.390;2022-08-03T13:17:01;2.20;;;0.75;;
10269;SDS011;5180;50.832;5.390;2022-08-03T13:19:26;2.67;;;0.70;;
10269;SDS011;5180;50.832;5.390;2022-08-03T13:21:52;0.50;;;0.50;;
10269;SDS011;5180;50.832;5.390;2022-08-03T13:24:18;1.33;;;0.90;;
10269;SDS011;5180;50.832;5.390;2022-08-03T13:26:44;1.60;;;0.70;;
10269;SDS011;5180;50.832;5.390;2022-08-03T13:29:10;1.05;;;0.70;;
10269;SDS011;5180;50.832;5.390;2022-08-03T13:31:35;0.70;;;0.70;;
10269;SDS011;5180;50.832;5.390;2022-08-03T13:34:01;2.67;;;0.65;;
10269;SDS011;5180;50.832;5.390;2022-08-03T13:36:26;2.15;;;0.80;;
10269;SDS011;5180;50.832;5.390;2022-08-03T13:38:52;0.73;;;0.70;;
10269;SDS011;5180;50.832;5.390;2022-08-03T13:41:18;1.33;;;0.90;;
10269;SDS011;5180;50.832;5.390;2022-08-03T13:43:43;1.63;;;0.77;;
10269;SDS011;5180;50.832;5.390;2022-08-03T13:46:09;0.77;;;0.77;;
10269;SDS011;5180;50.832;5.390;2022-08-03T13:48:34;1.73;;;0.68;;
10269;SDS011;5180;50.832;5.390;2022-08-03T13:51:00;1.15;;;0.80;;
10269;SDS011;5180;50.832;5.390;2022-08-03T13:53:26;1.85;;;0.82;;
10269;SDS011;5180;50.832;5.390;2022-08-03T13:55:51;2.55;;;0.80;;
10269;SDS011;5180;50.832;5.390;2022-08-03T13:58:20;0.90;;;0.75;;
10269;SDS011;5180;50.832;5.390;2022-08-03T14:00:46;0.82;;;0.80;;
10269;SDS011;5180;50.832;5.390;2022-08-03T14:03:11;2.40;;;0.70;;
10269;SDS011;5180;50.832;5.390;2022-08-03T14:05:37;0.85;;;0.70;;
10269;SDS011;5180;50.832;5.390;2022-08-03T14:08:03;1.38;;;0.82;;
10269;SDS011;5180;50.832;5.390;2022-08-03T14:10:38;1.05;;;0.60;;
10269;SDS011;5180;50.832;5.390;2022-08-03T14:13:05;0.80;;;0.70;;
10269;SDS011;5180;50.832;5.390;2022-08-03T14:15:31;1.20;;;0.80;;
10269;SDS011;5180;50.832;5.390;2022-08-03T14:17:57;0.90;;;0.75;;
10269;SDS011;5180;50.832;5.390;2022-08-03T14:20:23;1.15;;;0.90;;
10269;SDS011;5180;50.832;5.390;2022-08-03T14:22:49;3.15;;;0.65;;
10269;SDS011;5180;50.832;5.390;2022-08-03T14:25:14;2.65;;;0.98;;
10269;SDS011;5180;50.832;5.390;2022-08-03T14:27:40;2.13;;;0.90;;
10269;SDS011;5180;50.832;5.390;2022-08-03T14:30:06;1.80;;;0.70;;
10269;SDS011;5180;50.832;5.390;2022-08-03T14:32:31;1.63;;;0.50;;
10269;SDS011;5180;50.832;5.390;2022-08-03T14:34:57;2.05;;;0.80;;
10269;SDS011;5180;50.832;5.390;2022-08-03T14:37:23;1.15;;;0.75;;
10269;SDS011;5180;50.832;5.390;2022-08-03T14:39:48;2.53;;;0.90;;
10269;SDS011;5180;50.832;5.390;2022-08-03T14:42:14;0.80;;;0.80;;
10269;SDS011;5180;50.832;5.390;2022-08-03T14:44:40;1.58;;;0.70;;
10269;SDS011;5180;50.832;5.390;2022-08-03T14:47:06;1.17;;;0.70;;
10269;SDS011;5180;50.832;5.390;2022-08-03T14:49:32;0.60;;;0.60;;
10269;SDS011;5180;50.832;5.390;2022-08-03T14:51:58;1.10;;;0.70;;
10269;SDS011;5180;50.832;5.390;2022-08-03T14:54:23;0.70;;;0.70;;
10269;SDS011;5180;50.832;5.390;2022-08-03T14:56:49;0.95;;;0.60;;
10269;SDS011;5180;50.832;5.390;2022-08-03T14:59:16;0.75;;;0.70;;
10269;SDS011;5180;50.832;5.390;2022-08-03T15:01:41;2.65;;;0.80;;
10269;SDS011;5180;50.832;5.390;2022-08-03T15:04:07;0.52;;;0.52;;
10269;SDS011;5180;50.832;5.390;2022-08-03T15:06:33;1.90;;;0.70;;
10269;SDS011;5180;50.832;5.390;2022-08-03T15:08:58;0.90;;;0.70;;
10269;SDS011;5180;50.832;5.390;2022-08-03T15:11:24;0.73;;;0.70;;
10269;SDS011;5180;50.832;5.390;2022-08-03T15:13:49;0.60;;;0.60;;
10269;SDS011;5180;50.832;5.390;2022-08-03T15:16:15;1.30;;;0.90;;
10269;SDS011;5180;50.832;5.390;2022-08-03T15:18:41;1.27;;;0.80;;
10269;SDS011;5180;50.832;5.390;2022-08-03T15:21:06;0.68;;;0.68;;
10269;SDS011;5180;50.832;5.390;2022-08-03T15:23:32;1.88;;;0.70;;
10269;SDS011;5180;50.832;5.390;2022-08-03T15:25:57;1.20;;;0.73;;
10269;SDS011;5180;50.832;5.390;2022-08-03T15:28:23;1.58;;;0.80;;
10269;SDS011;5180;50.832;5.390;2022-08-03T15:30:50;0.80;;;0.80;;
10269;SDS011;5180;50.832;5.390;2022-08-03T15:33:16;2.00;;;0.70;;
10269;SDS011;5180;50.832;5.390;2022-08-03T15:35:42;0.88;;;0.80;;
10269;SDS011;5180;50.832;5.390;2022-08-03T15:38:08;1.15;;;0.70;;
10269;SDS011;5180;50.832;5.390;2022-08-03T15:40:34;0.80;;;0.60;;
10269;SDS011;5180;50.832;5.390;2022-08-03T15:42:59;1.02;;;0.88;;
10269;SDS011;5180;50.832;5.390;2022-08-03T15:45:25;0.95;;;0.70;;